Caperic 3 — FAB2665 — position and weather

sailwx.info

Track history (hours):
 
Tides and Currents Weather Stations Pressure Air Temp Water Temp Dewpoint Dewpoint Depression Visibility Wind Speed Wind Dir Waves Ship Positions

Caperic 3

Last reported at 2018-May-14 22:53 UTC. Time now 2018-May-22 00:26 UTC.
Position N 14°28' W 060°52'.

Length 17 m.

Type: Sailing vessel. MMSI: 227185270.

Date/timePositionNaut miles runAvg speedWind from/ knotsBaromVisibWave heightAir tempDewpointWater temp
2018-May-14 22:53N 14°28' W 060°52'0 0.0
2018-May-14 22:29N 14°28' W 060°52'0 0.0
2018-May-14 21:59N 14°28' W 060°52'0 0.0
2018-May-14 21:29N 14°28' W 060°52'0 0.0
2018-May-14 20:59N 14°28' W 060°52'0 0.0
2018-May-14 20:23N 14°28' W 060°52'0 0.0
2018-May-14 18:23N 14°28' W 060°52'0 0.0
2018-May-13 19:34N 14°28' W 060°52'0 0.0
2018-May-13 19:25N 14°28' W 060°52'0 0.0
2018-May-13 18:58N 14°28' W 060°52'0 0.2
2018-May-13 18:30N 14°28' W 060°52'2 3.1
2018-May-13 18:00N 14°27' W 060°53'1 0.5
2018-May-13 15:27N 14°26' W 060°54'3 5.8
2018-May-13 14:59N 14°26' W 060°56'2 4.7
2018-May-13 14:29N 14°27' W 060°59'2 4.4
2018-May-13 14:00N 14°27' W 061°01'  
2018-May-08 16:49N 14°27' W 061°04'2 6.0
2018-May-08 16:30N 14°27' W 061°02'3 5.9
2018-May-08 16:00N 14°27' W 060°59'2 4.9
2018-May-08 15:30N 14°27' W 060°56'2 4.5
2018-May-08 15:00N 14°27' W 060°54'2 3.6
2018-May-08 14:21N 14°28' W 060°52'0 0.0
2018-May-08 13:48N 14°28' W 060°52'0 0.0
2018-May-08 13:24N 14°28' W 060°52'0 0.0
2018-May-07 21:41N 14°28' W 060°52'0 0.0
2018-May-07 21:28N 14°28' W 060°52'0 0.0
2018-May-07 18:16N 14°28' W 060°52'0 0.0
2018-May-07 17:46N 14°28' W 060°52'0 0.0
2018-May-07 15:09N 14°28' W 060°52'0 0.0
2018-May-07 15:00N 14°28' W 060°52'0 0.0
2018-May-07 14:30N 14°28' W 060°52'0 0.0
2018-May-06 16:23N 14°28' W 060°52'3 0.1
2018-May-05 20:30N 14°26' W 060°53'2 4.8
2018-May-05 20:00N 14°26' W 060°56'3 5.1
2018-May-05 19:30N 14°27' W 060°58'3 4.9
2018-May-05 18:59N 14°27' W 061°01'2 4.4
2018-May-05 18:30N 14°27' W 061°03'  
Track history (hours):
 
Tides and Currents Weather Stations Pressure Air Temp Water Temp Dewpoint Dewpoint Depression Visibility Wind Speed Wind Dir Waves Ship Positions

Caperic 3

Last reported at 2018-May-14 22:53 UTC. Time now 2018-May-22 00:26 UTC.
Position N 14°28' W 060°52'.

Length 17 m.

Type: Sailing vessel. MMSI: 227185270.

Date/timePositionNaut miles runAvg speedWind from/ knotsBaromVisibWave heightAir tempDewpointWater temp
2018-May-14 22:53N 14°28' W 060°52'0 0.0
2018-May-14 22:29N 14°28' W 060°52'0 0.0
2018-May-14 21:59N 14°28' W 060°52'0 0.0
2018-May-14 21:29N 14°28' W 060°52'0 0.0
2018-May-14 20:59N 14°28' W 060°52'0 0.0
2018-May-14 20:23N 14°28' W 060°52'0 0.0
2018-May-14 18:23N 14°28' W 060°52'0 0.0
2018-May-13 19:34N 14°28' W 060°52'0 0.0
2018-May-13 19:25N 14°28' W 060°52'0 0.0
2018-May-13 18:58N 14°28' W 060°52'0 0.2
2018-May-13 18:30N 14°28' W 060°52'2 3.1
2018-May-13 18:00N 14°27' W 060°53'1 0.5
2018-May-13 15:27N 14°26' W 060°54'3 5.8
2018-May-13 14:59N 14°26' W 060°56'2 4.7
2018-May-13 14:29N 14°27' W 060°59'2 4.4
2018-May-13 14:00N 14°27' W 061°01'  
2018-May-08 16:49N 14°27' W 061°04'2 6.0
2018-May-08 16:30N 14°27' W 061°02'3 5.9
2018-May-08 16:00N 14°27' W 060°59'2 4.9
2018-May-08 15:30N 14°27' W 060°56'2 4.5
2018-May-08 15:00N 14°27' W 060°54'2 3.6
2018-May-08 14:21N 14°28' W 060°52'0 0.0
2018-May-08 13:48N 14°28' W 060°52'0 0.0
2018-May-08 13:24N 14°28' W 060°52'0 0.0
2018-May-07 21:41N 14°28' W 060°52'0 0.0
2018-May-07 21:28N 14°28' W 060°52'0 0.0
2018-May-07 18:16N 14°28' W 060°52'0 0.0
2018-May-07 17:46N 14°28' W 060°52'0 0.0
2018-May-07 15:09N 14°28' W 060°52'0 0.0
2018-May-07 15:00N 14°28' W 060°52'0 0.0
2018-May-07 14:30N 14°28' W 060°52'0 0.0
2018-May-06 16:23N 14°28' W 060°52'3 0.1
2018-May-05 20:30N 14°26' W 060°53'2 4.8
2018-May-05 20:00N 14°26' W 060°56'3 5.1
2018-May-05 19:30N 14°27' W 060°58'3 4.9
2018-May-05 18:59N 14°27' W 061°01'2 4.4
2018-May-05 18:30N 14°27' W 061°03'  

Dump ship's entire track history